Time;durP1;ratioP1;P1;durP2;ratioP2;P2;SDS_P1;SDS_P2;PMS_P1;PMS_P2;Temp;Humidity;BMP_temperature;BMP_pressure;BME280_temperature;BME280_humidity;BME280_pressure;Samples;Min_cycle;Max_cycle;Signal;HPM_P1;HPM_P2
2021/01/14 00:02:06;;;;;;;9.73;4.68;;;-2.60;55.70;;;;;;5073999;28;20111;-71
2021/01/14 00:04:32;;;;;;;8.20;4.87;;;-2.60;55.80;;;;;;5074497;28;20124;-70
2021/01/14 00:06:59;;;;;;;10.00;4.53;;;-2.70;55.90;;;;;;5073721;28;20488;-71
2021/01/14 00:09:25;;;;;;;9.32;4.72;;;-2.60;56.50;;;;;;5073873;28;20119;-69
2021/01/14 00:11:51;;;;;;;9.03;4.53;;;-2.60;56.00;;;;;;5070890;28;20063;-73
2021/01/14 00:14:17;;;;;;;9.17;4.80;;;-2.60;56.00;;;;;;5052189;28;20489;-70
2021/01/14 00:16:43;;;;;;;8.43;4.97;;;-2.60;56.00;;;;;;5053003;28;20090;-74
2021/01/14 00:19:08;;;;;;;9.90;5.20;;;-2.60;56.00;;;;;;5053785;28;20413;-71
2021/01/14 00:21:45;;;;;;;11.10;4.93;;;-2.60;56.10;;;;;;5053692;28;20040;-72
2021/01/14 00:24:11;;;;;;;8.65;5.13;;;-2.60;56.00;;;;;;5053856;28;20091;-71
2021/01/14 00:26:37;;;;;;;12.73;5.05;;;-2.60;56.00;;;;;;5053407;28;20045;-72
2021/01/14 00:29:04;;;;;;;9.40;4.75;;;-2.60;55.90;;;;;;5035884;28;20045;-71
2021/01/14 00:31:30;;;;;;;9.60;4.65;;;-2.60;55.80;;;;;;5053344;28;20025;-72
2021/01/14 00:33:56;;;;;;;8.77;4.57;;;-2.60;55.90;;;;;;5053634;28;20040;-70
2021/01/14 00:36:33;;;;;;;9.37;4.97;;;-2.60;55.90;;;;;;5053551;28;20513;-70
2021/01/14 00:39:00;;;;;;;9.73;4.80;;;-2.60;56.00;;;;;;5035932;28;20041;-73
2021/01/14 00:41:27;;;;;;;10.27;4.70;;;-2.60;56.00;;;;;;5035303;28;20520;-70
2021/01/14 00:43:53;;;;;;;10.60;5.27;;;-2.60;56.00;;;;;;5035633;28;20175;-72
2021/01/14 00:46:20;;;;;;;7.90;4.78;;;-2.60;56.00;;;;;;5019230;28;20041;-69
2021/01/14 00:48:46;;;;;;;8.00;4.60;;;-2.60;56.00;;;;;;5053029;28;20028;-71
2021/01/14 00:51:15;;;;;;;9.63;4.90;;;-2.60;56.10;;;;;;5052907;28;20041;-70
2021/01/14 00:53:41;;;;;;;10.50;4.80;;;-2.60;56.00;;;;;;5053478;28;20061;-71
2021/01/14 00:56:07;;;;;;;8.10;4.67;;;-2.60;56.10;;;;;;5053277;28;20053;-72
2021/01/14 00:58:34;;;;;;;11.40;4.87;;;-2.60;56.10;;;;;;5035346;28;20059;-73
2021/01/14 01:01:00;;;;;;;10.57;4.63;;;-2.60;56.00;;;;;;5035250;28;20037;-70
2021/01/14 01:03:26;;;;;;;8.73;4.50;;;-2.50;56.50;;;;;;5035096;28;20385;-71
2021/01/14 01:05:52;;;;;;;9.30;4.70;;;-2.60;55.80;;;;;;5052807;28;20032;-72
2021/01/14 01:08:18;;;;;;;8.47;4.73;;;-2.60;55.90;;;;;;5035232;28;20041;-70
2021/01/14 01:10:44;;;;;;;8.00;4.57;;;-2.60;55.90;;;;;;5053130;28;20385;-70
2021/01/14 01:13:10;;;;;;;9.68;4.82;;;-2.60;56.10;;;;;;5052918;28;20397;-70
2021/01/14 01:15:36;;;;;;;10.67;4.83;;;-2.60;56.10;;;;;;5052968;28;20198;-73
2021/01/14 01:18:02;;;;;;;8.30;4.37;;;-2.60;56.00;;;;;;5053257;28;20509;-71
2021/01/14 01:20:28;;;;;;;7.47;4.43;;;-2.60;55.90;;;;;;5018660;28;20036;-70
2021/01/14 01:22:56;;;;;;;9.43;4.47;;;-2.60;56.00;;;;;;5052670;28;20397;-72
2021/01/14 01:25:22;;;;;;;11.50;4.88;;;-2.60;56.20;;;;;;5052672;28;20040;-72
2021/01/14 01:27:48;;;;;;;12.03;5.13;;;-2.60;56.30;;;;;;5052642;28;20044;-70
2021/01/14 01:30:14;;;;;;;9.83;4.57;;;-2.60;56.20;;;;;;5052630;28;20064;-71
2021/01/14 01:32:40;;;;;;;9.65;5.82;;;-2.60;56.10;;;;;;5035037;28;20036;-70
2021/01/14 01:35:07;;;;;;;7.47;4.13;;;-2.60;56.10;;;;;;5052747;28;20051;-69
2021/01/14 01:37:33;;;;;;;8.67;4.77;;;-2.60;56.20;;;;;;5034586;28;20035;-69
2021/01/14 01:39:59;;;;;;;9.75;4.38;;;-2.60;56.20;;;;;;5052615;28;20028;-73
2021/01/14 01:42:25;;;;;;;7.93;4.75;;;-2.60;56.30;;;;;;5052201;28;20087;-71
2021/01/14 01:44:51;;;;;;;7.07;4.23;;;-2.60;56.10;;;;;;5052589;28;20041;-71
2021/01/14 01:47:18;;;;;;;11.43;4.30;;;-2.60;56.20;;;;;;5052263;28;20029;-69
2021/01/14 01:49:44;;;;;;;7.90;3.83;;;-2.60;56.20;;;;;;5052500;28;20037;-70
2021/01/14 01:52:10;;;;;;;10.13;4.35;;;-2.60;56.20;;;;;;5052130;28;20493;-72
2021/01/14 01:54:36;;;;;;;7.23;4.30;;;-2.60;56.10;;;;;;5018132;28;20037;-72
2021/01/14 01:57:04;;;;;;;8.63;4.27;;;-2.60;56.20;;;;;;5052586;28;20048;-71
2021/01/14 01:59:31;;;;;;;10.87;4.77;;;-2.60;56.00;;;;;;5052597;28;20037;-71
2021/01/14 02:01:58;;;;;;;10.07;5.20;;;-2.60;56.00;;;;;;5034570;28;20124;-72
2021/01/14 02:04:24;;;;;;;14.38;4.28;;;-2.60;56.00;;;;;;5052322;28;20051;-72
2021/01/14 02:06:58;;;;;;;11.13;4.37;;;-2.70;56.00;;;;;;5052969;28;20386;-68
2021/01/14 02:09:25;;;;;;;8.00;4.27;;;-2.70;56.00;;;;;;5035711;28;20033;-72
2021/01/14 02:12:04;;;;;;;9.35;4.63;;;-2.60;56.10;;;;;;5018001;28;20119;-71
2021/01/14 02:14:31;;;;;;;8.53;4.47;;;-2.70;56.10;;;;;;5034596;28;20082;-72
2021/01/14 02:16:57;;;;;;;9.40;4.47;;;-2.70;56.20;;;;;;5036853;28;20047;-71
2021/01/14 02:19:37;;;;;;;9.20;4.53;;;-2.60;56.20;;;;;;5038093;28;20115;-70
2021/01/14 02:22:37;;;;;;;9.15;5.65;;;-2.70;56.10;;;;;;5055769;28;20528;-69
2021/01/14 02:25:22;;;;;;;11.40;4.30;;;-2.60;56.10;;;;;;4982057;28;20041;-69
2021/01/14 02:27:50;;;;;;;9.40;4.27;;;-2.70;56.00;;;;;;5056019;28;20041;-69
2021/01/14 02:30:17;;;;;;;7.53;3.97;;;-2.60;56.00;;;;;;5055547;28;20044;-70
2021/01/14 02:32:43;;;;;;;7.43;3.90;;;-2.60;55.90;;;;;;5037927;28;20021;-71
2021/01/14 02:35:10;;;;;;;7.93;4.30;;;-2.70;56.00;;;;;;5056264;28;20159;-70
2021/01/14 02:37:36;;;;;;;10.37;5.20;;;-2.60;56.00;;;;;;5038215;28;20127;-70
2021/01/14 02:40:03;;;;;;;12.20;5.05;;;-2.60;56.00;;;;;;5038089;28;20529;-72
2021/01/14 02:42:29;;;;;;;7.78;4.22;;;-2.70;55.80;;;;;;5037643;28;20040;-69
2021/01/14 02:44:55;;;;;;;10.53;5.67;;;-2.60;55.80;;;;;;5055612;28;20025;-71
2021/01/14 02:47:22;;;;;;;8.67;4.37;;;-2.70;55.80;;;;;;5055335;28;20050;-70
2021/01/14 02:49:58;;;;;;;8.48;5.13;;;-2.70;55.90;;;;;;5055437;28;20044;-70
2021/01/14 02:52:27;;;;;;;8.45;5.00;;;-2.70;56.00;;;;;;5041906;28;20060;-71
2021/01/14 02:54:56;;;;;;;9.10;4.83;;;-2.70;56.00;;;;;;5075305;28;20048;-70
2021/01/14 02:57:24;;;;;;;9.60;5.17;;;-2.70;55.90;;;;;;5073997;28;20036;-71
2021/01/14 02:59:53;;;;;;;9.73;4.83;;;-2.70;55.80;;;;;;5075058;28;20532;-70
2021/01/14 03:02:19;;;;;;;9.70;5.43;;;-2.70;55.80;;;;;;5074965;28;20044;-69
2021/01/14 03:04:45;;;;;;;10.40;4.93;;;-2.70;55.70;;;;;;5075428;28;20107;-72
2021/01/14 03:07:11;;;;;;;10.27;5.07;;;-2.60;55.70;;;;;;5073806;28;20093;-71
2021/01/14 03:09:37;;;;;;;9.83;4.87;;;-2.60;55.60;;;;;;5075256;28;20493;-71
2021/01/14 03:12:03;;;;;;;8.50;4.65;;;-2.60;55.60;;;;;;5073458;28;20042;-69
2021/01/14 03:14:29;;;;;;;9.07;5.43;;;-2.60;55.50;;;;;;5073771;28;20064;-70
2021/01/14 03:16:55;;;;;;;9.90;5.03;;;-2.70;55.50;;;;;;5073616;28;20109;-72
2021/01/14 03:19:21;;;;;;;8.40;4.83;;;-2.70;55.40;;;;;;5057530;28;20492;-71
2021/01/14 03:21:47;;;;;;;9.40;5.40;;;-2.70;55.40;;;;;;5074095;28;20044;-70
2021/01/14 03:24:13;;;;;;;8.30;4.57;;;-2.70;55.30;;;;;;5074645;28;20036;-74
2021/01/14 03:26:39;;;;;;;8.93;4.50;;;-2.70;55.20;;;;;;5073348;28;20117;-70
2021/01/14 03:29:05;;;;;;;12.05;5.40;;;-2.70;55.20;;;;;;5055750;28;20055;-73
2021/01/14 03:31:31;;;;;;;11.43;5.80;;;-2.70;55.20;;;;;;5074430;28;20505;-70
2021/01/14 03:33:57;;;;;;;9.33;5.10;;;-2.70;55.20;;;;;;5073267;28;20029;-70
2021/01/14 03:36:23;;;;;;;10.57;4.37;;;-2.70;55.10;;;;;;5074553;28;20044;-72
2021/01/14 03:38:49;;;;;;;10.73;4.93;;;-2.70;55.10;;;;;;5073158;28;20089;-73
2021/01/14 03:41:18;;;;;;;8.60;4.70;;;-2.80;55.00;;;;;;5076692;28;20029;-74
2021/01/14 03:43:45;;;;;;;9.53;4.90;;;-2.80;55.00;;;;;;5073657;28;20054;-73
2021/01/14 03:46:16;;;;;;;8.43;4.80;;;-2.70;55.00;;;;;;5085025;28;20058;-74
2021/01/14 03:48:44;;;;;;;11.83;5.20;;;-2.70;54.90;;;;;;5081384;28;20052;-74
2021/01/14 03:51:29;;;;;;;9.17;4.90;;;-2.80;54.70;;;;;;5079032;28;20033;-72
2021/01/14 03:53:54;;;;;;;8.47;5.13;;;-2.80;54.70;;;;;;5055908;28;20048;-71
2021/01/14 03:56:20;;;;;;;10.88;5.72;;;-2.80;54.70;;;;;;5073846;28;20094;-72
2021/01/14 03:58:46;;;;;;;11.98;5.55;;;-2.80;54.60;;;;;;5074370;28;20044;-70
2021/01/14 04:01:12;;;;;;;9.18;5.28;;;-2.80;54.50;;;;;;5074174;28;20124;-71
2021/01/14 04:03:40;;;;;;;10.35;5.45;;;-2.80;54.50;;;;;;5073752;28;20145;-73
2021/01/14 04:06:06;;;;;;;9.27;5.57;;;-2.80;54.50;;;;;;5056175;28;20032;-72
2021/01/14 04:08:32;;;;;;;10.63;5.17;;;-2.80;54.40;;;;;;5072467;28;20420;-73
2021/01/14 04:10:58;;;;;;;9.52;5.50;;;-2.80;54.20;;;;;;5072637;28;20062;-74
2021/01/14 04:13:24;;;;;;;11.97;5.63;;;-2.80;54.40;;;;;;5072608;28;20040;-71
2021/01/14 04:15:50;;;;;;;11.30;5.38;;;-2.80;54.40;;;;;;5073579;28;20044;-72
2021/01/14 04:18:16;;;;;;;9.48;5.32;;;-2.80;54.30;;;;;;5073413;28;20553;-73
2021/01/14 04:20:41;;;;;;;9.73;5.40;;;-2.80;54.00;;;;;;5072164;28;20036;-72
2021/01/14 04:23:07;;;;;;;8.37;5.43;;;-2.80;53.90;;;;;;5073528;28;20036;-72
2021/01/14 04:25:33;;;;;;;8.77;5.23;;;-2.80;53.90;;;;;;5072450;28;20499;-71
2021/01/14 04:28:01;;;;;;;10.30;5.90;;;-2.90;53.80;;;;;;5073617;28;20091;-71
2021/01/14 04:30:28;;;;;;;10.93;5.30;;;-2.90;53.80;;;;;;5073482;28;20067;-72
2021/01/14 04:33:11;;;;;;;9.57;4.70;;;-2.80;53.90;;;;;;5073994;28;20037;-70
2021/01/14 04:35:48;;;;;;;9.57;5.10;;;-2.90;53.70;;;;;;5071787;28;20040;-74
2021/01/14 04:38:16;;;;;;;10.93;5.50;;;-2.90;53.70;;;;;;5073535;28;20044;-70
2021/01/14 04:40:46;;;;;;;9.93;5.53;;;-2.90;53.80;;;;;;5055472;28;20400;-71
2021/01/14 04:43:13;;;;;;;9.82;5.10;;;-2.90;53.70;;;;;;5072096;28;20513;-70
2021/01/14 04:45:41;;;;;;;14.30;6.55;;;-2.90;53.70;;;;;;5073013;28;20032;-69
2021/01/14 04:48:10;;;;;;;9.70;5.67;;;-2.90;53.60;;;;;;5055263;28;20044;-71
2021/01/14 04:50:38;;;;;;;9.82;5.43;;;-2.90;53.60;;;;;;5071729;28;20446;-70
2021/01/14 04:53:06;;;;;;;9.53;5.10;;;-2.90;53.60;;;;;;5071387;28;20420;-71
2021/01/14 04:55:46;;;;;;;14.13;5.20;;;-2.90;53.50;;;;;;5072544;28;20485;-71
2021/01/14 04:58:17;;;;;;;8.75;5.38;;;-2.90;53.60;;;;;;5072843;28;20032;-70
2021/01/14 05:00:50;;;;;;;10.45;5.50;;;-2.90;53.50;;;;;;5072778;28;20036;-71
2021/01/14 05:03:22;;;;;;;11.15;6.18;;;-2.90;53.50;;;;;;5073047;28;20497;-71
2021/01/14 05:05:49;;;;;;;10.23;5.60;;;-2.90;53.40;;;;;;5071878;28;20079;-71
2021/01/14 05:08:17;;;;;;;9.90;5.47;;;-2.90;53.40;;;;;;5071475;28;20408;-71
2021/01/14 05:10:44;;;;;;;11.15;5.68;;;-3.00;53.30;;;;;;5071537;28;20032;-72
2021/01/14 05:13:11;;;;;;;10.17;5.60;;;-3.00;53.40;;;;;;5071621;28;20032;-70
2021/01/14 05:15:38;;;;;;;10.00;6.00;;;-3.00;53.40;;;;;;5071527;28;20049;-69
2021/01/14 05:18:05;;;;;;;8.88;5.68;;;-3.00;53.30;;;;;;5071398;28;20036;-70
2021/01/14 05:20:31;;;;;;;9.70;5.38;;;-3.00;53.20;;;;;;5073188;28;20049;-72
2021/01/14 05:23:04;;;;;;;10.00;5.57;;;-3.00;53.30;;;;;;5072670;28;20040;-70
2021/01/14 05:25:32;;;;;;;10.43;6.00;;;-3.00;53.20;;;;;;5072727;28;20435;-72
2021/01/14 05:28:25;;;;;;;11.13;5.90;;;-3.00;53.40;;;;;;5054764;28;20041;-70
2021/01/14 05:30:52;;;;;;;13.60;7.10;;;-3.00;53.40;;;;;;5069869;28;20049;-71
2021/01/14 05:33:23;;;;;;;8.87;5.43;;;-3.00;53.20;;;;;;5071325;28;20105;-71
2021/01/14 05:35:53;;;;;;;8.95;5.53;;;-2.90;53.20;;;;;;5072690;28;20119;-74
2021/01/14 05:38:23;;;;;;;11.07;6.03;;;-3.00;53.10;;;;;;5071200;28;20040;-72
2021/01/14 05:43:55;;;;;;;10.27;5.77;;;-3.00;53.20;;;;;;5071789;28;20086;-73
2021/01/14 05:46:29;;;;;;;11.10;5.50;;;-3.00;53.20;;;;;;5072047;28;20032;-72
2021/01/14 05:49:00;;;;;;;12.77;5.43;;;-3.00;53.10;;;;;;5071034;28;20047;-75
2021/01/14 05:51:33;;;;;;;8.10;5.23;;;-3.00;53.10;;;;;;5072977;28;20086;-73
2021/01/14 05:54:04;;;;;;;13.70;6.18;;;-3.00;53.20;;;;;;5075370;28;20081;-71
2021/01/14 05:56:33;;;;;;;10.97;5.90;;;-3.00;53.10;;;;;;5058334;28;20084;-69
2021/01/14 05:59:00;;;;;;;9.60;5.33;;;-3.00;53.10;;;;;;5075953;28;20550;-68
2021/01/14 06:01:26;;;;;;;14.17;5.47;;;-3.00;53.80;;;;;;5076263;28;20033;-69
2021/01/14 06:03:52;;;;;;;12.10;5.80;;;-3.00;53.10;;;;;;5076335;28;20040;-69
2021/01/14 06:06:19;;;;;;;13.03;5.23;;;-3.00;53.10;;;;;;5074996;28;20032;-69
2021/01/14 06:08:46;;;;;;;10.30;6.23;;;-3.00;53.10;;;;;;5075962;28;20523;-70
2021/01/14 06:11:38;;;;;;;11.65;6.00;;;-3.00;53.20;;;;;;5075001;28;20024;-69
2021/01/14 06:14:04;;;;;;;11.70;5.57;;;-3.00;53.20;;;;;;5053536;28;20072;-70
2021/01/14 06:16:30;;;;;;;12.33;5.67;;;-3.00;53.20;;;;;;5074762;28;20122;-69
2021/01/14 06:19:06;;;;;;;9.10;5.33;;;-3.00;53.10;;;;;;5076122;28;20032;-73
2021/01/14 06:21:47;;;;;;;9.73;5.30;;;-3.00;52.90;;;;;;5058599;28;20032;-72
2021/01/14 06:24:36;;;;;;;11.77;5.60;;;-3.00;53.00;;;;;;5074446;28;20040;-72
2021/01/14 06:27:05;;;;;;;8.47;5.27;;;-3.00;52.90;;;;;;5076174;28;20051;-74
2021/01/14 06:29:39;;;;;;;10.60;5.27;;;-3.00;52.90;;;;;;5074369;28;20500;-69
2021/01/14 06:32:08;;;;;;;8.83;5.13;;;-3.00;52.90;;;;;;5075765;28;20508;-70
2021/01/14 06:34:34;;;;;;;11.50;5.87;;;-2.90;52.90;;;;;;5074153;28;20090;-70
2021/01/14 06:37:13;;;;;;;10.50;6.00;;;-3.00;52.70;;;;;;5075334;28;20492;-71
2021/01/14 06:39:44;;;;;;;7.97;4.80;;;-3.00;52.70;;;;;;5075774;28;20036;-70
2021/01/14 06:42:24;;;;;;;10.20;5.32;;;-2.90;52.80;;;;;;5074377;28;20032;-71
2021/01/14 06:44:55;;;;;;;9.33;5.27;;;-2.90;52.80;;;;;;5075437;28;20040;-70
2021/01/14 06:47:40;;;;;;;10.53;4.97;;;-2.90;52.60;;;;;;5075310;28;20033;-71
2021/01/14 06:50:15;;;;;;;10.20;5.47;;;-2.90;52.50;;;;;;5074274;28;20041;-70
2021/01/14 06:52:59;;;;;;;11.50;5.60;;;-2.90;52.40;;;;;;5073954;28;20048;-70
2021/01/14 06:55:28;;;;;;;11.10;5.50;;;-2.90;52.40;;;;;;5075425;28;20040;-70
2021/01/14 06:58:11;;;;;;;11.47;6.20;;;-2.90;52.50;;;;;;5074367;28;20142;-73
2021/01/14 07:00:45;;;;;;;11.47;5.80;;;-2.90;52.50;;;;;;5057363;28;20036;-70
2021/01/14 07:03:14;;;;;;;9.83;5.13;;;-2.90;52.60;;;;;;5075220;28;20095;-70
2021/01/14 07:05:53;;;;;;;12.55;5.60;;;-2.90;52.60;;;;;;5074094;28;20485;-73
2021/01/14 07:08:30;;;;;;;11.50;5.93;;;-2.90;52.50;;;;;;5075198;28;20564;-72
2021/01/14 07:11:08;;;;;;;11.23;5.90;;;-2.90;52.30;;;;;;5057632;28;20040;-70
2021/01/14 07:13:39;;;;;;;10.73;5.47;;;-2.90;52.30;;;;;;5075093;28;20039;-72
2021/01/14 07:16:06;;;;;;;13.23;6.50;;;-2.90;52.30;;;;;;5073915;28;20428;-77
2021/01/14 07:18:33;;;;;;;11.43;5.83;;;-2.90;52.30;;;;;;5073528;28;20025;-74
2021/01/14 07:21:07;;;;;;;11.60;5.57;;;-2.80;52.30;;;;;;5073691;28;20210;-73
2021/01/14 07:23:42;;;;;;;8.77;5.23;;;-2.90;52.20;;;;;;5073971;28;20029;-72
2021/01/14 07:26:08;;;;;;;10.63;5.87;;;-2.80;52.30;;;;;;5073920;28;20044;-75
2021/01/14 07:28:36;;;;;;;10.40;5.47;;;-2.90;52.20;;;;;;5073210;28;20040;-73
2021/01/14 07:31:23;;;;;;;11.17;5.53;;;-2.90;52.20;;;;;;5056818;28;20428;-73
2021/01/14 07:33:50;;;;;;;10.45;6.13;;;-2.90;52.20;;;;;;5056945;28;20077;-75
2021/01/14 07:36:23;;;;;;;11.87;5.73;;;-2.90;52.00;;;;;;5073091;28;20052;-76
2021/01/14 07:38:52;;;;;;;11.00;6.17;;;-2.90;52.30;;;;;;5074725;28;20488;-72
2021/01/14 07:41:19;;;;;;;11.57;6.00;;;-2.80;52.20;;;;;;5074404;28;20515;-71
2021/01/14 07:43:46;;;;;;;12.07;5.83;;;-2.80;52.20;;;;;;5056275;28;20035;-71
2021/01/14 07:46:18;;;;;;;12.70;6.03;;;-2.80;52.30;;;;;;5074397;28;20033;-71
2021/01/14 07:48:44;;;;;;;15.10;7.07;;;-2.80;52.30;;;;;;5074134;28;20036;-72
2021/01/14 07:51:11;;;;;;;13.10;5.70;;;-2.90;52.20;;;;;;5074173;28;20512;-70
2021/01/14 07:53:37;;;;;;;9.73;5.63;;;-2.80;52.20;;;;;;5060025;28;20045;-71
2021/01/14 07:56:23;;;;;;;14.37;6.20;;;-2.80;52.20;;;;;;5053851;28;20036;-72
2021/01/14 07:58:52;;;;;;;12.30;6.68;;;-2.80;52.20;;;;;;5019782;28;20033;-73
2021/01/14 08:01:18;;;;;;;11.60;6.23;;;-2.80;52.10;;;;;;5036506;28;20068;-74
2021/01/14 08:03:45;;;;;;;13.60;6.33;;;-2.80;52.30;;;;;;5053863;28;20470;-74
2021/01/14 08:06:23;;;;;;;13.97;6.70;;;-2.80;52.20;;;;;;5036293;28;20040;-72
2021/01/14 08:09:10;;;;;;;12.35;6.40;;;-2.80;52.10;;;;;;5036461;28;20048;-72
2021/01/14 08:11:36;;;;;;;12.05;6.43;;;-2.80;52.20;;;;;;5036252;28;20041;-72
2021/01/14 08:14:02;;;;;;;14.82;7.38;;;-2.80;52.20;;;;;;5035075;28;20040;-73
2021/01/14 08:16:42;;;;;;;12.27;6.87;;;-2.80;52.60;;;;;;5053807;28;20441;-73
2021/01/14 08:19:08;;;;;;;13.03;6.93;;;-2.80;53.30;;;;;;5019295;28;20055;-73
2021/01/14 08:21:35;;;;;;;12.53;6.70;;;-2.80;53.90;;;;;;5053814;28;20041;-73
2021/01/14 08:24:01;;;;;;;14.13;6.65;;;-2.80;54.20;;;;;;5054131;28;20056;-71
2021/01/14 08:26:28;;;;;;;14.70;7.10;;;-2.80;54.40;;;;;;5053720;28;20037;-75
2021/01/14 08:29:00;;;;;;;16.70;7.63;;;-2.90;54.80;;;;;;5053448;28;20040;-71
2021/01/14 08:31:53;;;;;;;14.20;7.72;;;-2.90;55.00;;;;;;5035660;28;20037;-72
2021/01/14 08:34:21;;;;;;;13.10;6.60;;;-2.90;55.50;;;;;;5031597;28;20040;-72
2021/01/14 08:36:49;;;;;;;18.27;7.33;;;-2.90;55.40;;;;;;5035368;28;20124;-71
2021/01/14 08:39:20;;;;;;;13.03;6.87;;;-2.80;55.10;;;;;;5053579;28;20501;-75
2021/01/14 08:41:48;;;;;;;13.43;7.13;;;-2.80;54.80;;;;;;5019213;28;20497;-73
2021/01/14 08:44:17;;;;;;;14.47;7.63;;;-2.80;54.40;;;;;;5035435;28;20040;-73
2021/01/14 08:46:48;;;;;;;13.80;6.75;;;-2.70;54.20;;;;;;5035615;28;20040;-72
2021/01/14 08:49:16;;;;;;;12.63;6.60;;;-2.70;54.10;;;;;;5035756;28;20512;-75
2021/01/14 08:51:43;;;;;;;15.20;7.57;;;-2.70;53.80;;;;;;5053078;28;20052;-73
2021/01/14 08:54:10;;;;;;;14.93;7.20;;;-2.70;53.80;;;;;;5051965;28;20058;-72
2021/01/14 08:56:37;;;;;;;15.60;7.83;;;-2.70;53.70;;;;;;5073184;28;20048;-72
2021/01/14 08:59:13;;;;;;;15.00;7.70;;;-2.70;53.50;;;;;;5073005;28;20472;-71
2021/01/14 09:01:40;;;;;;;13.90;6.90;;;-2.70;53.40;;;;;;5055102;28;20037;-73
2021/01/14 09:04:07;;;;;;;14.00;6.53;;;-2.60;53.30;;;;;;5072626;28;20116;-74
2021/01/14 09:06:37;;;;;;;11.80;6.53;;;-2.60;53.10;;;;;;5071845;28;20067;-73
2021/01/14 09:09:30;;;;;;;13.53;7.07;;;-2.60;53.00;;;;;;5071579;28;20071;-72
2021/01/14 09:11:55;;;;;;;13.83;6.83;;;-2.60;53.00;;;;;;5069018;28;20135;-72
2021/01/14 09:14:21;;;;;;;11.47;6.37;;;-2.60;53.00;;;;;;5072499;28;20131;-73
2021/01/14 09:16:49;;;;;;;14.00;7.30;;;-2.60;52.90;;;;;;5071592;28;20041;-77
2021/01/14 09:19:20;;;;;;;11.20;6.50;;;-2.60;53.00;;;;;;5071828;28;20489;-73
2021/01/14 09:21:47;;;;;;;13.43;6.83;;;-2.60;53.00;;;;;;5054999;28;20036;-71
2021/01/14 09:24:14;;;;;;;11.20;6.37;;;-2.60;52.90;;;;;;5072346;28;20413;-72
2021/01/14 09:26:41;;;;;;;13.53;7.33;;;-2.60;52.90;;;;;;5070753;28;20043;-72
2021/01/14 09:29:11;;;;;;;14.77;7.27;;;-2.60;52.90;;;;;;5054851;28;20083;-72
2021/01/14 09:31:38;;;;;;;14.63;7.50;;;-2.60;52.80;;;;;;5072396;28;20048;-75
2021/01/14 09:34:04;;;;;;;12.57;7.10;;;-2.60;52.70;;;;;;5054324;28;20501;-76
2021/01/14 09:36:33;;;;;;;16.43;6.63;;;-2.60;52.60;;;;;;5072227;28;20086;-73
2021/01/14 09:39:13;;;;;;;13.35;6.80;;;-2.60;52.60;;;;;;5054161;28;20130;-74
2021/01/14 09:41:40;;;;;;;12.47;7.37;;;-2.60;52.60;;;;;;5070985;28;20064;-75
2021/01/14 09:44:14;;;;;;;13.88;7.30;;;-2.60;53.00;;;;;;5072047;28;20099;-75
2021/01/14 09:46:47;;;;;;;14.13;6.87;;;-2.60;53.80;;;;;;5072418;28;20040;-75
2021/01/14 09:49:21;;;;;;;11.50;6.50;;;-2.70;54.40;;;;;;5071074;28;20094;-73
2021/01/14 09:51:50;;;;;;;12.87;6.80;;;-2.70;55.00;;;;;;5054924;28;20504;-75
2021/01/14 09:54:17;;;;;;;13.97;6.93;;;-2.70;55.40;;;;;;5070948;28;20052;-72
2021/01/14 09:57:04;;;;;;;13.87;7.03;;;-2.70;55.70;;;;;;5072215;28;20045;-75
2021/01/14 09:59:40;;;;;;;12.93;6.63;;;-2.70;56.00;;;;;;5071012;28;20040;-74
2021/01/14 10:02:06;;;;;;;13.90;6.60;;;-2.70;56.10;;;;;;5070713;28;20098;-72
2021/01/14 10:04:34;;;;;;;15.70;7.27;;;-2.70;56.10;;;;;;5070914;28;20505;-73
2021/01/14 10:07:02;;;;;;;14.20;6.97;;;-2.70;56.30;;;;;;5072368;28;20040;-74
2021/01/14 10:09:28;;;;;;;14.60;7.13;;;-2.70;56.40;;;;;;5070986;28;20135;-78
2021/01/14 10:11:55;;;;;;;13.70;7.40;;;-2.60;56.70;;;;;;5070931;28;20033;-72
2021/01/14 10:14:22;;;;;;;15.10;7.15;;;-2.70;56.70;;;;;;5054357;28;20033;-75
2021/01/14 10:16:51;;;;;;;11.67;6.47;;;-2.70;56.90;;;;;;5070940;28;20091;-76
2021/01/14 10:19:22;;;;;;;13.10;6.88;;;-2.70;56.70;;;;;;5072510;28;20119;-77
2021/01/14 10:21:49;;;;;;;16.53;7.60;;;-2.70;56.80;;;;;;5072314;28;20056;-75
2021/01/14 10:24:19;;;;;;;13.13;6.90;;;-2.70;56.80;;;;;;5072007;28;20288;-74
2021/01/14 10:26:45;;;;;;;14.70;7.97;;;-2.70;56.70;;;;;;5071939;28;20086;-80
2021/01/14 10:29:27;;;;;;;12.73;6.50;;;-2.70;56.70;;;;;;5070702;28;20078;-66
2021/01/14 10:32:03;;;;;;;13.20;6.57;;;-2.70;56.80;;;;;;5072807;28;20037;-69
2021/01/14 10:34:50;;;;;;;12.23;6.83;;;-2.70;56.60;;;;;;5070948;28;20036;-68
2021/01/14 10:37:31;;;;;;;15.57;6.50;;;-2.60;56.30;;;;;;5055164;28;20047;-68
2021/01/14 10:40:03;;;;;;;15.73;7.90;;;-2.60;56.00;;;;;;5075591;28;20078;-67
2021/01/14 10:42:39;;;;;;;15.47;6.93;;;-2.60;55.80;;;;;;5075977;28;20033;-69
2021/01/14 10:45:05;;;;;;;12.17;6.73;;;-2.60;55.70;;;;;;5075441;28;20047;-69
2021/01/14 10:47:32;;;;;;;13.40;6.90;;;-2.50;55.50;;;;;;5057431;28;20037;-69
2021/01/14 10:49:58;;;;;;;15.10;7.50;;;-2.50;55.30;;;;;;5075295;28;20047;-67
2021/01/14 10:52:24;;;;;;;16.20;8.02;;;-2.50;55.20;;;;;;5071596;28;20115;-70
2021/01/14 10:55:01;;;;;;;12.70;6.70;;;-2.50;55.10;;;;;;5055315;28;20033;-68
2021/01/14 10:57:51;;;;;;;13.97;7.63;;;-2.50;54.90;;;;;;5037400;28;20044;-70
2021/01/14 11:00:19;;;;;;;15.73;7.70;;;-2.50;54.80;;;;;;5037559;28;20037;-73
2021/01/14 11:02:45;;;;;;;16.13;7.23;;;-2.50;54.70;;;;;;5037391;28;20039;-71
2021/01/14 11:05:13;;;;;;;14.37;7.13;;;-2.50;54.60;;;;;;5037178;28;20064;-70
2021/01/14 11:07:39;;;;;;;13.03;6.50;;;-2.50;54.70;;;;;;5054934;28;20066;-69
2021/01/14 11:10:09;;;;;;;14.20;7.50;;;-2.50;54.60;;;;;;5037552;28;20037;-70
2021/01/14 11:13:02;;;;;;;16.40;7.17;;;-2.50;54.60;;;;;;5054790;28;20520;-69
2021/01/14 11:15:29;;;;;;;15.20;7.18;;;-2.50;54.50;;;;;;5054962;28;20045;-72
2021/01/14 11:17:55;;;;;;;14.23;6.85;;;-2.50;54.50;;;;;;5055120;28;20056;-68
2021/01/14 11:20:21;;;;;;;14.13;6.93;;;-2.50;54.50;;;;;;5054638;28;20033;-69
2021/01/14 11:22:46;;;;;;;15.32;6.88;;;-2.50;54.50;;;;;;5036630;28;20041;-70
2021/01/14 11:25:13;;;;;;;14.63;7.33;;;-2.50;54.40;;;;;;5054935;28;20128;-69
2021/01/14 11:27:39;;;;;;;15.35;7.45;;;-2.50;54.30;;;;;;5036807;28;20025;-68
2021/01/14 11:30:06;;;;;;;13.52;6.85;;;-2.50;54.30;;;;;;5036761;28;20055;-70
2021/01/14 11:32:32;;;;;;;15.20;7.30;;;-2.50;54.30;;;;;;5036758;28;20083;-74
2021/01/14 11:34:58;;;;;;;12.85;6.63;;;-2.50;54.30;;;;;;5054836;28;20076;-72
2021/01/14 11:37:24;;;;;;;14.80;7.50;;;-2.50;54.20;;;;;;5020098;28;20611;-74
2021/01/14 11:39:50;;;;;;;15.13;6.72;;;-2.50;54.20;;;;;;5054568;28;20029;-73
2021/01/14 11:42:16;;;;;;;17.33;8.63;;;-2.50;54.00;;;;;;5036812;28;20371;-73
2021/01/14 11:44:42;;;;;;;13.82;6.68;;;-2.50;54.20;;;;;;5036388;28;20044;-72
2021/01/14 11:47:08;;;;;;;13.50;7.10;;;-2.50;54.20;;;;;;5020538;28;20071;-71
2021/01/14 11:49:34;;;;;;;13.73;6.72;;;-2.50;54.00;;;;;;5036708;28;20045;-74
2021/01/14 11:52:00;;;;;;;13.75;6.68;;;-2.50;54.10;;;;;;5054173;28;20041;-75
2021/01/14 11:54:26;;;;;;;14.83;6.87;;;-2.50;54.10;;;;;;5037023;28;20044;-72
2021/01/14 11:56:53;;;;;;;13.27;6.40;;;-2.50;54.00;;;;;;5053999;28;20414;-75
2021/01/14 11:59:19;;;;;;;14.77;7.20;;;-2.50;54.00;;;;;;5019877;28;20029;-72
2021/01/14 12:01:45;;;;;;;12.88;6.63;;;-2.50;54.00;;;;;;5036360;28;20028;-75
2021/01/14 12:04:11;;;;;;;11.90;6.30;;;-2.50;54.00;;;;;;5036328;28;20040;-75
2021/01/14 12:06:36;;;;;;;12.97;6.43;;;-2.50;53.90;;;;;;5019720;28;20401;-75
2021/01/14 12:09:03;;;;;;;12.17;6.43;;;-2.60;53.90;;;;;;5053791;28;20190;-71
2021/01/14 12:11:29;;;;;;;12.68;6.95;;;-2.60;53.80;;;;;;5036198;28;20559;-75
2021/01/14 12:13:55;;;;;;;13.13;7.00;;;-2.50;53.80;;;;;;5036586;28;20087;-75
2021/01/14 12:16:21;;;;;;;13.93;7.10;;;-2.50;53.80;;;;;;5053565;28;20045;-71
2021/01/14 12:18:47;;;;;;;13.40;6.53;;;-2.60;53.80;;;;;;5053726;28;20041;-71
2021/01/14 12:21:16;;;;;;;14.20;6.53;;;-2.60;53.80;;;;;;5036043;28;20060;-71
2021/01/14 12:23:46;;;;;;;15.63;6.87;;;-2.60;53.80;;;;;;5035758;28;20032;-72
2021/01/14 12:26:12;;;;;;;13.82;6.45;;;-2.60;53.80;;;;;;5035407;28;20033;-72
2021/01/14 12:28:38;;;;;;;12.50;6.17;;;-2.60;53.80;;;;;;5053966;28;20094;-71
2021/01/14 12:31:04;;;;;;;12.20;6.33;;;-2.60;53.60;;;;;;5035685;28;20037;-72
2021/01/14 12:33:30;;;;;;;14.40;6.40;;;-2.60;53.80;;;;;;5035597;28;20487;-73
2021/01/14 12:35:56;;;;;;;13.97;7.13;;;-2.60;53.60;;;;;;5018879;28;20037;-73
2021/01/14 12:38:22;;;;;;;15.07;7.20;;;-2.60;53.80;;;;;;5018934;28;20029;-70
2021/01/14 12:40:48;;;;;;;14.43;6.60;;;-2.60;53.90;;;;;;5052991;28;20075;-73
2021/01/14 12:43:14;;;;;;;16.50;7.90;;;-2.60;53.70;;;;;;5035831;28;20045;-73
2021/01/14 12:45:40;;;;;;;12.68;6.55;;;-2.50;53.70;;;;;;5035454;28;20043;-75
2021/01/14 12:48:06;;;;;;;10.90;6.43;;;-2.60;53.60;;;;;;5035412;28;20067;-74
2021/01/14 12:50:32;;;;;;;14.43;7.10;;;-2.60;53.60;;;;;;5035299;28;20025;-78
2021/01/14 12:52:58;;;;;;;16.43;7.60;;;-2.60;53.40;;;;;;5053369;28;20133;-78
2021/01/14 12:55:24;;;;;;;14.53;6.80;;;-2.60;53.50;;;;;;5052891;28;20103;-75